Time;durP1;ratioP1;P1;durP2;ratioP2;P2;SDS_P1;SDS_P2;PMS_P1;PMS_P2;Temp;Humidity;BMP_temperature;BMP_pressure;BME280_temperature;BME280_humidity;BME280_pressure;Samples;Min_cycle;Max_cycle;Signal;HPM_P1;HPM_P2
2022/06/10 00:02:21;;;;;;;1961.82;655.25;;;13.70;99.90;;;;;;5136937;27;20046;-82
2022/06/10 00:04:47;;;;;;;1033.13;205.43;;;13.50;99.90;;;;;;5117088;27;20050;-81
2022/06/10 00:07:12;;;;;;;1962.57;545.65;;;13.50;99.90;;;;;;5131711;27;20152;-81
2022/06/10 00:09:38;;;;;;;1881.35;827.70;;;13.50;99.90;;;;;;5138901;27;20045;-81
2022/06/10 00:12:04;;;;;;;1999.90;999.90;;;13.50;99.90;;;;;;5124507;27;20050;-81
2022/06/10 00:14:30;;;;;;;1868.82;833.53;;;13.50;99.90;;;;;;5141316;27;20042;-81
2022/06/10 00:16:56;;;;;;;1999.90;999.90;;;13.50;99.90;;;;;;5119885;27;20051;-81
2022/06/10 00:19:22;;;;;;;1811.07;805.10;;;13.40;99.90;;;;;;5138870;27;20031;-81
2022/06/10 00:21:47;;;;;;;1999.90;999.90;;;13.40;99.90;;;;;;5142987;27;20133;-81
2022/06/10 00:24:13;;;;;;;1999.90;999.90;;;13.40;99.90;;;;;;5119334;27;20047;-81
2022/06/10 00:26:39;;;;;;;1999.90;999.90;;;14.00;99.90;;;;;;5144572;27;20039;-81
2022/06/10 00:29:04;;;;;;;1999.90;999.90;;;13.30;99.90;;;;;;5138881;27;20051;-81
2022/06/10 00:31:30;;;;;;;1421.75;255.85;;;13.60;99.90;;;;;;5120920;27;20046;-81
2022/06/10 00:33:56;;;;;;;1999.90;706.35;;;13.30;99.90;;;;;;5138896;27;20070;-81
2022/06/10 00:36:22;;;;;;;1523.75;581.03;;;14.40;99.90;;;;;;5115968;27;20035;-81
2022/06/10 00:38:48;;;;;;;1999.90;999.90;;;13.30;99.90;;;;;;5122855;27;20046;-81
2022/06/10 00:41:14;;;;;;;1999.90;733.55;;;13.30;99.90;;;;;;5131339;27;20050;-81
2022/06/10 00:43:40;;;;;;;1885.18;371.55;;;13.30;99.90;;;;;;5147258;27;20488;-82
2022/06/10 00:46:23;;;;;;;1881.82;375.80;;;13.30;99.90;;;;;;5143663;27;20034;-82
2022/06/10 00:48:52;;;;;;;1619.53;473.17;;;13.30;99.90;;;;;;5132412;27;20059;-82
2022/06/10 00:51:45;;;;;;;1876.00;815.58;;;13.30;99.90;;;;;;5142575;27;20055;-82
2022/06/10 00:54:20;;;;;;;1999.90;999.90;;;13.30;99.90;;;;;;5127200;27;20032;-83
2022/06/10 00:57:03;;;;;;;1999.90;999.90;;;13.20;99.90;;;;;;5142048;27;20042;-83
2022/06/10 00:59:32;;;;;;;1999.90;999.90;;;13.10;99.90;;;;;;5136929;27;20039;-83
2022/06/10 01:02:03;;;;;;;1999.90;999.90;;;13.10;99.90;;;;;;5139938;27;20046;-82
2022/06/10 01:04:29;;;;;;;1726.65;612.13;;;13.10;99.90;;;;;;5143270;27;20047;-82
2022/06/10 01:06:56;;;;;;;1999.90;662.10;;;13.10;99.90;;;;;;5145466;27;20099;-82
2022/06/10 01:09:23;;;;;;;1999.90;999.90;;;13.10;99.90;;;;;;5130224;27;20506;-82
2022/06/10 01:12:04;;;;;;;1999.90;999.90;;;13.00;99.90;;;;;;5117280;27;20054;-82
2022/06/10 01:14:54;;;;;;;1504.15;257.30;;;13.00;99.90;;;;;;5132247;27;20039;-82
2022/06/10 01:17:38;;;;;;;1749.05;790.05;;;12.90;99.90;;;;;;5130853;27;20043;-82
2022/06/10 01:20:18;;;;;;;1764.28;793.10;;;13.00;99.90;;;;;;5135739;27;20054;-82
2022/06/10 01:22:58;;;;;;;1999.90;999.90;;;13.10;1.00;;;;;;5140091;27;20042;-82
2022/06/10 01:25:36;;;;;;;1866.90;371.52;;;13.00;99.90;;;;;;5133710;27;20039;-82
2022/06/10 01:28:28;;;;;;;1999.90;999.90;;;13.00;99.90;;;;;;5136179;27;20072;-82
2022/06/10 01:31:31;;;;;;;1999.90;999.90;;;13.00;99.90;;;;;;5136138;27;20039;-82
2022/06/10 01:34:18;;;;;;;1810.18;807.88;;;13.00;99.90;;;;;;5115151;27;20054;-81
2022/06/10 01:36:59;;;;;;;1999.90;999.90;;;13.00;99.90;;;;;;5136326;27;20070;-80
2022/06/10 01:39:34;;;;;;;1999.90;999.90;;;13.00;99.90;;;;;;5132599;27;20797;-80
2022/06/10 01:42:27;;;;;;;1110.93;218.85;;;13.00;99.90;;;;;;5136504;27;20065;-80
2022/06/10 01:45:26;;;;;;;1355.97;268.10;;;12.90;1.00;;;;;;5122044;27;20483;-81
2022/06/10 01:48:03;;;;;;;1999.90;999.90;;;12.90;1.00;;;;;;5146620;27;20049;-81
2022/06/10 01:50:29;;;;;;;1999.90;999.90;;;12.90;99.90;;;;;;5142568;27;20059;-80
2022/06/10 01:53:04;;;;;;;1999.90;999.90;;;12.80;99.90;;;;;;5138195;27;20043;-81
2022/06/10 01:55:32;;;;;;;1999.90;999.90;;;12.80;1.00;;;;;;5132073;27;20054;-81
2022/06/10 01:58:07;;;;;;;1621.22;391.77;;;12.80;1.00;;;;;;5097433;27;20050;-81
2022/06/10 02:00:36;;;;;;;949.80;212.23;;;12.80;1.00;;;;;;5109138;27;20121;-81
2022/06/10 02:03:31;;;;;;;1999.90;999.90;;;13.30;1.00;;;;;;5140883;27;20051;-81
2022/06/10 02:06:20;;;;;;;1619.25;775.80;;;12.70;1.00;;;;;;5102286;27;20479;-82
2022/06/10 02:08:49;;;;;;;;;;;12.60;1.00;;;;;;5151913;27;20042;-80
2022/06/10 02:11:18;;;;;;;1999.90;999.90;;;12.50;99.90;;;;;;5141143;27;19919;-81
2022/06/10 02:13:55;;;;;;;1999.90;999.90;;;12.60;1.00;;;;;;5132412;27;20118;-81
2022/06/10 02:16:29;;;;;;;1999.90;999.90;;;12.50;1.00;;;;;;5139181;27;20066;-81
2022/06/10 02:19:02;;;;;;;1580.93;364.35;;;12.40;1.00;;;;;;5124594;27;20043;-81
2022/06/10 02:21:53;;;;;;;1999.90;999.90;;;12.50;1.00;;;;;;5138260;27;20114;-81
2022/06/10 02:24:25;;;;;;;1969.85;478.35;;;12.50;32.00;;;;;;5142176;27;20051;-81
2022/06/10 02:26:53;;;;;;;1934.07;860.58;;;12.50;67.10;;;;;;5121307;27;20058;-81
2022/06/10 02:29:26;;;;;;;1636.72;532.15;;;12.50;89.30;;;;;;5135533;27;20039;-81
2022/06/10 02:31:58;;;;;;;1886.82;843.45;;;12.60;99.90;;;;;;5119316;27;20051;-81
2022/06/10 02:34:26;;;;;;;1816.22;823.92;;;12.50;99.90;;;;;;5132109;27;20121;-81
2022/06/10 02:37:30;;;;;;;1999.90;644.92;;;12.60;99.90;;;;;;5133797;27;20047;-81
2022/06/10 02:40:26;;;;;;;1876.97;519.72;;;12.50;99.90;;;;;;5110493;27;20047;-81
2022/06/10 02:43:01;;;;;;;1999.90;555.72;;;12.50;99.90;;;;;;5118272;27;20046;-81
2022/06/10 02:45:33;;;;;;;1278.70;408.10;;;12.60;1.00;;;;;;5118354;27;20455;-81
2022/06/10 02:48:07;;;;;;;1696.22;795.88;;;12.50;99.90;;;;;;5124035;27;20055;-81
2022/06/10 02:50:33;;;;;;;1338.35;304.65;;;12.50;99.90;;;;;;5135082;27;20062;-81
2022/06/10 02:53:00;;;;;;;1191.32;269.85;;;12.50;99.90;;;;;;5123028;27;20047;-81
2022/06/10 02:55:27;;;;;;;1850.90;839.80;;;12.40;99.90;;;;;;5152875;27;20042;-81
2022/06/10 03:03:54;;;;;;;984.42;224.50;;;13.70;99.90;;;;;;5146080;27;20101;-81
2022/06/10 03:06:57;;;;;;;1300.03;558.33;;;12.40;99.90;;;;;;5144064;27;20054;-81
2022/06/10 03:09:47;;;;;;;893.00;197.32;;;12.50;99.90;;;;;;5133892;27;20047;-81
2022/06/10 03:12:26;;;;;;;1211.05;280.02;;;12.50;99.90;;;;;;5131583;27;20043;-81
2022/06/10 03:14:51;;;;;;;;;;;12.50;99.90;;;;;;5118405;27;20043;-81
2022/06/10 03:17:25;;;;;;;;;;;12.40;99.90;;;;;;5146353;27;19941;-81
2022/06/10 03:20:01;;;;;;;;;;;12.50;99.90;;;;;;5149117;27;20013;-81
2022/06/10 03:22:30;;;;;;;;;;;12.50;1.00;;;;;;5118646;27;19976;-81
2022/06/10 03:25:02;;;;;;;;;;;12.40;99.90;;;;;;5148259;27;19923;-81
2022/06/10 03:27:40;;;;;;;;;;;12.50;1.00;;;;;;5139595;27;19930;-81
2022/06/10 03:30:08;;;;;;;;;;;12.40;99.90;;;;;;5139305;27;20390;-81
2022/06/10 03:32:40;;;;;;;;;;;12.50;1.00;;;;;;5144663;27;20397;-82
2022/06/10 03:35:09;;;;;;;;;;;12.40;22.50;;;;;;5127028;27;19926;-79
2022/06/10 03:37:36;;;;;;;;;;;12.50;76.60;;;;;;5122276;27;20315;-81
2022/06/10 03:40:03;;;;;;;;;;;12.50;37.80;;;;;;5137054;27;20702;-81
2022/06/10 03:42:28;;;;;;;;;;;12.50;68.10;;;;;;5150217;27;19918;-81
2022/06/10 03:44:56;;;;;;;;;;;12.50;12.40;;;;;;5151061;27;19923;-81
2022/06/10 03:47:25;;;;;;;;;;;12.50;99.90;;;;;;5125131;27;19919;-81
2022/06/10 03:50:17;;;;;;;;;;;12.50;99.90;;;;;;5123790;27;19975;-81
2022/06/10 03:52:44;;;;;;;;;;;12.60;25.40;;;;;;5117236;27;19954;-81
2022/06/10 03:55:13;;;;;;;;;;;12.50;1.00;;;;;;5137624;27;20275;-81
2022/06/10 03:57:39;;;;;;;;;;;13.50;1.00;;;;;;5139442;27;19919;-81
2022/06/10 04:00:05;;;;;;;;;;;12.60;1.00;;;;;;5149763;27;20010;-81
2022/06/10 04:02:30;;;;;;;;;;;12.60;1.00;;;;;;5122454;27;20393;-81
2022/06/10 04:04:56;;;;;;;;;;;12.70;1.00;;;;;;5115133;27;20363;-81
2022/06/10 04:07:21;;;;;;;;;;;12.60;1.00;;;;;;5113455;27;19919;-80
2022/06/10 04:09:47;;;;;;;;;;;12.70;1.00;;;;;;5136488;27;19919;-81
2022/06/10 04:12:13;;;;;;;;;;;12.70;24.80;;;;;;5124411;27;19935;-81
2022/06/10 04:14:39;;;;;;;;;;;12.80;1.00;;;;;;5139528;27;20362;-81
2022/06/10 04:17:05;;;;;;;;;;;12.80;1.00;;;;;;5125715;27;19919;-81
2022/06/10 04:19:30;;;;;;;;;;;12.90;71.00;;;;;;5135148;27;19938;-80
2022/06/10 04:21:56;;;;;;;;;;;13.00;1.00;;;;;;5100661;27;20321;-81
2022/06/10 04:24:21;;;;;;;;;;;13.50;99.90;;;;;;5137161;27;19919;-81
2022/06/10 04:26:47;;;;;;;;;;;13.10;99.90;;;;;;5116512;27;20276;-81
2022/06/10 04:29:14;;;;;;;;;;;13.20;99.90;;;;;;5135989;27;19946;-81
2022/06/10 04:31:39;;;;;;;;;;;13.30;99.90;;;;;;5117963;27;19923;-81
2022/06/10 04:34:05;;;;;;;;;;;13.30;99.90;;;;;;5099995;27;19983;-81
2022/06/10 04:36:31;;;;;;;;;;;13.40;99.90;;;;;;5131898;27;19926;-81
2022/06/10 04:38:56;;;;;;;;;;;13.50;99.90;;;;;;5129017;27;19923;-81
2022/06/10 04:41:22;;;;;;;;;;;13.50;26.80;;;;;;5152014;27;20290;-81
2022/06/10 04:43:48;;;;;;;;;;;13.70;99.90;;;;;;5142187;27;20276;-81
2022/06/10 04:46:21;;;;;;;;;;;13.60;56.10;;;;;;5139845;27;19990;-81
2022/06/10 04:48:47;;;;;;;;;;;13.60;45.20;;;;;;5125464;27;20868;-81
2022/06/10 04:51:12;;;;;;;;;;;13.60;1.00;;;;;;5139992;27;19924;-81
2022/06/10 04:53:38;;;;;;;;;;;14.00;1.00;;;;;;5137135;27;19954;-81
2022/06/10 04:56:04;;;;;;;;;;;13.70;1.00;;;;;;5121182;27;19919;-81
2022/06/10 04:58:29;;;;;;;;;;;13.80;1.00;;;;;;5142321;27;19919;-80
2022/06/10 05:00:55;;;;;;;;;;;13.90;10.80;;;;;;5114810;27;19919;-81
2022/06/10 05:03:20;;;;;;;;;;;13.90;1.00;;;;;;5122332;27;19928;-81
2022/06/10 05:05:46;;;;;;;;;;;14.10;29.30;;;;;;5123187;27;20419;-81
2022/06/10 05:08:13;;;;;;;;;;;14.30;1.00;;;;;;5117241;27;19925;-81
2022/06/10 05:10:39;;;;;;;;;;;14.50;1.00;;;;;;5132081;27;20367;-81
2022/06/10 05:13:04;;;;;;;;;;;14.90;99.90;;;;;;5147335;27;19925;-81
2022/06/10 05:15:30;;;;;;;;;;;14.90;99.90;;;;;;5142802;27;19918;-81
2022/06/10 05:17:56;;;;;;;;;;;15.10;99.90;;;;;;5122512;27;19919;-84
2022/06/10 05:20:24;;;;;;;;;;;15.30;99.90;;;;;;5123178;27;19971;-85
2022/06/10 05:22:50;;;;;;;;;;;15.40;99.90;;;;;;5146036;27;19991;-86
2022/06/10 05:25:16;;;;;;;;;;;15.60;99.90;;;;;;5133377;27;20315;-81
2022/06/10 05:27:41;;;;;;;;;;;15.70;99.90;;;;;;5127710;27;19923;-81
2022/06/10 05:30:09;;;;;;;;;;;15.80;99.90;;;;;;5134482;27;20116;-81
2022/06/10 05:32:35;;;;;;;;;;;15.90;99.90;;;;;;5126574;27;20038;-80
2022/06/10 05:35:01;;;;;;;;;;;16.00;99.90;;;;;;5142135;27;19926;-81
2022/06/10 05:37:27;;;;;;;;;;;16.10;99.90;;;;;;5148799;27;20273;-81
2022/06/10 05:39:53;;;;;;;;;;;16.10;99.90;;;;;;5131059;27;19926;-81
2022/06/10 05:42:19;;;;;;;;;;;16.20;99.90;;;;;;5114710;27;19926;-81
2022/06/10 05:44:46;;;;;;;;;;;16.20;99.90;;;;;;5136234;27;19919;-81
2022/06/10 05:47:16;;;;;;;;;;;16.20;99.90;;;;;;5134521;27;20476;-81
2022/06/10 05:49:44;;;;;;;;;;;16.20;99.90;;;;;;5124364;27;20400;-84
2022/06/10 05:52:10;;;;;;;;;;;16.70;99.90;;;;;;5118051;27;19927;-81
2022/06/10 05:54:37;;;;;;;;;;;16.20;99.90;;;;;;5140193;27;19919;-81
2022/06/10 05:57:02;;;;;;;;;;;16.30;99.90;;;;;;5145899;27;19926;-80
2022/06/10 05:59:33;;;;;;;;;;;16.30;99.90;;;;;;5130860;27;20279;-81
2022/06/10 06:02:09;;;;;;;;;;;16.20;99.90;;;;;;5152960;27;19919;-81
2022/06/10 06:04:34;;;;;;;;;;;16.30;99.90;;;;;;5115371;28;19927;-81
2022/06/10 06:07:00;;;;;;;;;;;16.30;99.90;;;;;;5132188;28;19972;-81
2022/06/10 06:09:29;;;;;;;;;;;16.40;99.90;;;;;;5148316;27;20399;-81
2022/06/10 06:11:56;;;;;;;;;;;16.50;99.90;;;;;;5133613;27;19919;-81
2022/06/10 06:14:23;;;;;;;;;;;16.50;99.90;;;;;;5142753;27;20022;-81
2022/06/10 06:16:51;;;;;;;;;;;16.60;99.90;;;;;;5152631;27;20383;-80
2022/06/10 06:19:17;;;;;;;;;;;16.50;99.90;;;;;;5151746;27;19967;-81
2022/06/10 06:21:43;;;;;;;;;;;16.50;99.90;;;;;;5155184;27;19931;-80
2022/06/10 06:24:08;;;;;;;;;;;16.50;99.90;;;;;;5150589;27;19925;-82
2022/06/10 06:26:34;;;;;;;;;;;16.40;99.90;;;;;;5146375;27;19973;-81
2022/06/10 06:29:00;;;;;;;;;;;16.30;99.90;;;;;;5154135;27;19926;-81
2022/06/10 06:31:25;;;;;;;;;;;16.30;99.90;;;;;;5150867;27;19926;-81
2022/06/10 06:33:51;;;;;;;;;;;16.30;99.90;;;;;;5156727;27;19923;-81
2022/06/10 06:36:22;;;;;;;;;;;16.30;99.90;;;;;;5118692;27;20271;-81
2022/06/10 06:38:48;;;;;;;;;;;16.20;99.90;;;;;;5118259;27;20390;-81
2022/06/10 06:41:13;;;;;;;;;;;16.20;99.90;;;;;;5135095;27;19923;-82
2022/06/10 06:43:39;;;;;;;;;;;16.20;99.90;;;;;;5118072;27;19942;-81
2022/06/10 06:46:05;;;;;;;;;;;16.30;99.90;;;;;;5130419;27;19919;-81
2022/06/10 06:48:31;;;;;;;;;;;16.50;99.90;;;;;;5138016;27;19919;-81
2022/06/10 06:50:56;;;;;;;;;;;16.70;99.90;;;;;;5120513;27;19919;-82
2022/06/10 06:53:22;;;;;;;;;;;16.80;99.90;;;;;;5156199;27;19919;-81
2022/06/10 06:55:47;;;;;;;;;;;16.90;99.90;;;;;;5128853;27;20336;-81
2022/06/10 06:58:14;;;;;;;;;;;17.10;99.90;;;;;;5135605;27;19946;-82
2022/06/10 07:00:40;;;;;;;;;;;17.10;99.90;;;;;;5136175;27;19972;-82
2022/06/10 07:03:05;;;;;;;;;;;17.30;99.90;;;;;;5135942;27;19923;-81
2022/06/10 07:05:31;;;;;;;;;;;17.40;99.90;;;;;;5136461;27;19933;-81
2022/06/10 07:07:57;;;;;;;;;;;17.40;99.90;;;;;;5136165;27;19919;-81
2022/06/10 07:10:23;;;;;;;;;;;17.50;99.90;;;;;;5134082;27;19967;-81
2022/06/10 07:12:49;;;;;;;;;;;17.50;99.90;;;;;;5134192;27;19919;-81
2022/06/10 07:15:15;;;;;;;;;;;17.70;99.90;;;;;;5118885;27;19926;-81
2022/06/10 07:17:41;;;;;;;;;;;17.80;99.90;;;;;;5137751;27;19926;-81
2022/06/10 07:20:08;;;;;;;;;;;17.80;99.90;;;;;;5134930;27;19926;-81
2022/06/10 07:22:33;;;;;;;;;;;17.80;99.90;;;;;;5154357;27;19975;-81
2022/06/10 07:24:59;;;;;;;;;;;17.70;99.90;;;;;;5150956;27;20353;-81
2022/06/10 07:27:24;;;;;;;;;;;17.50;99.90;;;;;;5135237;27;19923;-82
2022/06/10 07:29:50;;;;;;;;;;;17.50;99.90;;;;;;5145330;27;20335;-82
2022/06/10 07:32:16;;;;;;;;;;;17.40;99.90;;;;;;5134585;27;20036;-81
2022/06/10 07:34:41;;;;;;;;;;;17.30;99.90;;;;;;5155458;27;19918;-82
2022/06/10 07:37:07;;;;;;;;;;;17.30;99.90;;;;;;5155766;27;19926;-82
2022/06/10 07:39:33;;;;;;;;;;;17.40;99.90;;;;;;5153897;27;19923;-82
2022/06/10 07:42:02;;;;;;;;;;;17.50;99.90;;;;;;5155206;27;19962;-82
2022/06/10 07:44:29;;;;;;;;;;;17.50;99.90;;;;;;5155630;27;20287;-81
2022/06/10 07:46:55;;;;;;;;;;;17.60;99.90;;;;;;5146118;27;20359;-80
2022/06/10 07:49:21;;;;;;;;;;;17.70;99.90;;;;;;5116612;27;19919;-81
2022/06/10 07:51:47;;;;;;;;;;;17.80;99.90;;;;;;5116671;27;19926;-81
2022/06/10 07:54:13;;;;;;;;;;;17.90;99.90;;;;;;5134711;27;20005;-82
2022/06/10 07:56:39;;;;;;;;;;;17.90;99.90;;;;;;5134101;27;19919;-82
2022/06/10 07:59:05;;;;;;;;;;;18.00;99.90;;;;;;5116558;27;20279;-82
2022/06/10 08:01:30;;;;;;;;;;;18.00;99.90;;;;;;5127676;27;19920;-82
2022/06/10 08:03:56;;;;;;;;;;;18.00;99.90;;;;;;5134836;27;20352;-82
2022/06/10 08:06:23;;;;;;;;;;;17.90;99.90;;;;;;5145737;27;20446;-83
2022/06/10 08:08:49;;;;;;;;;;;17.90;99.90;;;;;;5155426;27;20058;-83
2022/06/10 08:11:15;;;;;;;;;;;17.90;99.90;;;;;;5124697;27;19927;-82
2022/06/10 08:13:40;;;;;;;;;;;17.90;99.90;;;;;;5135213;27;19919;-83
2022/06/10 08:16:06;;;;;;;;;;;18.00;99.90;;;;;;5134701;27;19946;-83
2022/06/10 08:18:33;;;;;;;;;;;18.10;99.90;;;;;;5134467;27;20017;-82
2022/06/10 08:23:45;;;;;;;;;;;18.20;99.90;;;;;;5115902;27;19919;-83
2022/06/10 08:26:11;;;;;;;;;;;18.30;99.90;;;;;;5135166;27;19926;-82
2022/06/10 08:28:38;;;;;;;;;;;18.20;99.90;;;;;;5134524;27;20022;-83
2022/06/10 08:31:05;;;;;;;;;;;18.20;99.90;;;;;;5154495;27;20018;-83
2022/06/10 08:33:31;;;;;;;;;;;18.30;99.90;;;;;;5154974;27;19937;-82
2022/06/10 08:35:58;;;;;;;;;;;18.10;99.90;;;;;;5150015;27;20374;-83
2022/06/10 08:38:24;;;;;;;;;;;18.10;99.90;;;;;;5154944;27;19923;-82
2022/06/10 08:40:52;;;;;;;;;;;18.00;99.90;;;;;;5154366;27;19919;-82
2022/06/10 08:43:18;;;;;;;;;;;18.00;99.90;;;;;;5136431;27;20355;-83
2022/06/10 08:46:04;;;;;;;;;;;18.00;99.90;;;;;;5153404;27;19950;-82
2022/06/10 08:48:34;;;;;;;;;;;18.10;99.90;;;;;;5084076;27;19930;-83
2022/06/10 08:51:09;;;;;;;;;;;18.30;99.90;;;;;;5135484;27;19967;-83
2022/06/10 08:54:04;;;;;;;;;;;18.50;99.90;;;;;;5154518;27;20131;-83
2022/06/10 08:56:32;;;;;;;;;;;18.80;95.20;;;;;;5114197;27;19982;-82
2022/06/10 08:59:01;;;;;;;;;;;19.00;92.30;;;;;;5154915;27;20216;-82
2022/06/10 09:01:28;;;;;;;;;;;19.10;58.30;;;;;;5154717;27;19926;-84
2022/06/10 09:04:02;;;;;;;;;;;19.00;33.90;;;;;;5154928;27;19923;-82
2022/06/10 09:06:42;;;;;;;;;;;19.10;27.60;;;;;;5144249;27;20015;-83
2022/06/10 09:09:10;;;;;;;;;;;19.30;39.90;;;;;;5133463;27;19919;-82
2022/06/10 09:11:38;;;;;;;;;;;19.40;10.00;;;;;;5132244;27;19926;-80
2022/06/10 09:14:11;;;;;;;;;;;19.30;1.00;;;;;;5117355;27;19923;-83
2022/06/10 09:16:56;;;;;;;;;;;19.30;1.00;;;;;;5144304;27;19920;-82
2022/06/10 09:19:42;;;;;;;;;;;19.20;16.50;;;;;;5132578;27;19971;-82
2022/06/10 09:22:11;;;;;;;;;;;18.90;30.60;;;;;;5073497;27;19919;-82
2022/06/10 09:24:49;;;;;;;;;;;18.80;43.90;;;;;;5132265;27;19919;-83
2022/06/10 09:27:17;;;;;;;;;;;18.90;13.20;;;;;;5133285;27;19920;-83
2022/06/10 09:29:43;;;;;;;;;;;18.70;9.20;;;;;;5114234;27;19934;-83
2022/06/10 09:32:09;;;;;;;;;;;18.70;23.10;;;;;;5133224;27;19987;-82
2022/06/10 09:34:40;;;;;;;;;;;18.60;7.90;;;;;;5132742;27;20034;-82
2022/06/10 09:37:15;;;;;;;;;;;18.40;32.00;;;;;;5132553;27;19919;-82
2022/06/10 09:42:25;;;;;;;;;;;18.20;62.90;;;;;;5132823;27;19977;-82
2022/06/10 09:45:03;;;;;;;;;;;18.20;77.90;;;;;;5133058;27;20375;-81
2022/06/10 09:47:36;;;;;;;;;;;18.30;68.90;;;;;;5139788;27;19962;-82
2022/06/10 09:50:13;;;;;;;;;;;18.60;75.50;;;;;;5132942;27;20356;-83
2022/06/10 09:52:44;;;;;;;;;;;18.80;58.70;;;;;;5133436;27;20027;-81
2022/06/10 09:55:26;;;;;;;;;;;19.20;9.60;;;;;;5133011;27;19919;-82
2022/06/10 09:58:12;;;;;;;;;;;19.80;1.00;;;;;;5146982;27;19930;-82
2022/06/10 10:00:43;;;;;;;;;;;20.30;1.00;;;;;;5137758;27;19940;-82
2022/06/10 10:03:14;;;;;;;;;;;20.30;1.00;;;;;;5152968;27;19975;-82
2022/06/10 10:05:43;;;;;;;;;;;20.10;1.00;;;;;;5151972;28;19940;-82
2022/06/10 10:08:27;;;;;;;;;;;19.90;1.00;;;;;;5157412;27;19919;-83
2022/06/10 10:11:00;;;;;;;;;;;20.00;1.00;;;;;;5171123;27;19990;-82
2022/06/10 10:13:44;;;;;;;;;;;19.60;1.00;;;;;;5124301;27;19919;-83
2022/06/10 10:16:25;;;;;;;;;;;19.50;1.00;;;;;;5177748;27;20426;-82
2022/06/10 10:18:51;;;;;;;;;;;19.50;1.00;;;;;;5158289;27;19930;-83
2022/06/10 10:21:23;;;;;;;;;;;19.60;1.00;;;;;;5151952;27;19923;-82
2022/06/10 10:23:53;;;;;;;;;;;19.80;1.00;;;;;;5153080;27;19915;-82
2022/06/10 10:26:23;;;;;;;;;;;19.90;1.00;;;;;;5132826;28;19908;-82
2022/06/10 10:28:51;;;;;;;;;;;20.10;1.00;;;;;;5152372;27;19934;-83
2022/06/10 10:31:32;;;;;;;;;;;20.20;1.00;;;;;;5104153;28;20288;-83
2022/06/10 10:33:58;;;;;;;;;;;20.10;1.00;;;;;;5131162;28;20383;-83
2022/06/10 10:36:31;;;;;;;;;;;20.00;1.00;;;;;;5120914;27;19923;-83
2022/06/10 10:38:58;;;;;;;;;;;20.10;1.00;;;;;;5153164;27;19919;-83
2022/06/10 10:41:29;;;;;;;;;;;20.10;1.00;;;;;;5136976;27;19923;-83
2022/06/10 10:43:57;;;;;;;;;;;20.10;1.00;;;;;;5114119;27;20010;-84
2022/06/10 10:46:31;;;;;;;;;;;20.20;1.00;;;;;;5132237;28;19972;-83
2022/06/10 10:48:59;;;;;;;;;;;20.40;1.00;;;;;;5131655;27;20413;-82
2022/06/10 10:51:31;;;;;;;;;;;20.60;1.00;;;;;;5131819;27;19925;-83
2022/06/10 10:54:02;;;;;;;;;;;20.40;1.00;;;;;;5114228;28;19927;-80
2022/06/10 10:56:29;;;;;;;;;;;20.10;1.00;;;;;;5113369;28;19968;-84
2022/06/10 10:58:56;;;;;;;;;;;19.90;1.00;;;;;;5132061;28;19919;-83
2022/06/10 11:01:46;;;;;;;;;;;19.90;1.00;;;;;;5121310;27;20247;-83
2022/06/10 11:04:15;;;;;;;;;;;19.80;1.00;;;;;;5152780;27;19942;-83
2022/06/10 11:06:41;;;;;;;;;;;19.70;1.00;;;;;;5138100;27;19971;-83
2022/06/10 11:09:12;;;;;;;;;;;19.50;1.00;;;;;;5134509;27;19919;-83
2022/06/10 11:11:40;;;;;;;;;;;19.50;1.00;;;;;;5116369;27;19939;-83
2022/06/10 11:14:20;;;;;;;;;;;19.50;1.00;;;;;;5135700;27;20005;-84
2022/06/10 11:16:52;;;;;;;;;;;19.70;1.00;;;;;;5117141;27;19919;-84
2022/06/10 11:19:20;;;;;;;;;;;20.10;1.00;;;;;;5145790;27;19998;-83
2022/06/10 11:21:55;;;;;;;;;;;20.60;1.00;;;;;;5155553;27;20355;-83
2022/06/10 11:24:40;;;;;;;;;;;21.20;1.00;;;;;;5156350;27;20060;-83
2022/06/10 11:27:26;;;;;;;;;;;21.60;1.00;;;;;;5115681;27;19926;-83
2022/06/10 11:30:00;;;;;;;;;;;21.20;1.00;;;;;;5153127;27;19925;-84
2022/06/10 11:32:28;;;;;;;;;;;21.00;1.00;;;;;;5155985;27;20018;-83
2022/06/10 11:34:58;;;;;;;;;;;21.10;1.00;;;;;;5155502;27;19930;-83
2022/06/10 11:37:30;;;;;;;;;;;21.10;1.00;;;;;;5156230;27;19977;-83
2022/06/10 11:40:01;;;;;;;;;;;21.20;1.00;;;;;;5134274;27;19979;-83
2022/06/10 11:42:31;;;;;;;;;;;21.20;1.00;;;;;;5137735;27;19975;-83
2022/06/10 11:45:02;;;;;;;;;;;21.20;1.00;;;;;;5155173;27;20302;-83
2022/06/10 11:47:35;;;;;;;;;;;21.20;1.00;;;;;;5120443;27;19926;-82
2022/06/10 11:50:00;;;;;;;;;;;21.40;1.00;;;;;;5152814;27;19926;-83
2022/06/10 11:52:39;;;;;;;;;;;21.80;1.00;;;;;;5155853;27;19920;-83
2022/06/10 11:55:25;;;;;;;;;;;22.00;1.00;;;;;;5134171;27;19920;-82
2022/06/10 12:00:47;;;;;;;;;;;22.10;99.90;;;;;;5134338;27;20344;-84
2022/06/10 12:03:31;;;;;;;;;;;21.90;1.00;;;;;;5134881;27;20026;-83
2022/06/10 12:06:06;;;;;;;;;;;21.80;1.00;;;;;;5134174;27;20224;-83
2022/06/10 12:08:43;;;;;;;;;;;22.00;99.90;;;;;;5116369;27;20387;-83
2022/06/10 12:11:21;;;;;;;;;;;21.90;99.90;;;;;;5127983;27;19919;-85
2022/06/10 12:14:11;;;;;;;;;;;21.90;99.90;;;;;;5136233;27;19919;-83
2022/06/10 12:16:37;;;;;;;;;;;21.70;1.00;;;;;;5141555;27;19919;-83
2022/06/10 12:19:06;;;;;;;;;;;22.00;1.00;;;;;;5124964;27;19919;-83
2022/06/10 12:21:32;;;;;;;;;;;22.10;99.90;;;;;;5134456;27;19926;-82
2022/06/10 12:23:58;;;;;;;;;;;22.40;99.90;;;;;;5121188;27;19984;-83
2022/06/10 12:26:32;;;;;;;;;;;22.70;99.90;;;;;;5150198;27;20297;-83
2022/06/10 12:29:03;;;;;;;;;;;22.90;99.90;;;;;;5128114;27;19950;-83
2022/06/10 12:31:29;;;;;;;;;;;23.20;99.90;;;;;;5143974;27;19919;-83
2022/06/10 12:33:58;;;;;;;;;;;23.20;99.90;;;;;;5125890;27;19919;-83
2022/06/10 12:36:37;;;;;;;;;;;23.10;99.90;;;;;;5151243;27;20459;-83
2022/06/10 12:39:03;;;;;;;;;;;23.00;99.90;;;;;;5151924;27;19930;-83
2022/06/10 12:41:49;;;;;;;;;;;23.00;99.90;;;;;;5140288;27;19916;-81
2022/06/10 12:44:21;;;;;;;;;;;23.00;99.90;;;;;;5136131;27;20007;-82
2022/06/10 12:46:54;;;;;;;;;;;23.00;99.90;;;;;;5152048;27;20325;-82
2022/06/10 12:49:20;;;;;;;;;;;23.00;99.90;;;;;;5133477;27;19919;-81
2022/06/10 12:51:52;;;;;;;;;;;22.90;99.90;;;;;;5132850;27;20003;-81
2022/06/10 12:54:23;;;;;;;;;;;22.80;99.90;;;;;;5133975;27;19976;-82
2022/06/10 12:57:09;;;;;;;;;;;23.10;99.90;;;;;;5132968;27;19965;-83
2022/06/10 12:59:35;;;;;;;;;;;23.00;99.90;;;;;;5134109;27;19962;-83
2022/06/10 13:02:00;;;;;;;;;;;22.90;99.90;;;;;;5135568;27;20014;-82
2022/06/10 13:04:26;;;;;;;;;;;23.00;99.90;;;;;;5153362;27;20390;-83
2022/06/10 13:07:00;;;;;;;;;;;23.20;99.90;;;;;;5152349;27;20014;-83
2022/06/10 13:09:28;;;;;;;;;;;23.00;99.90;;;;;;5131461;27;20015;-82
2022/06/10 13:11:56;;;;;;;;;;;23.00;99.90;;;;;;5113655;27;20009;-82
2022/06/10 13:14:33;;;;;;;;;;;22.70;99.90;;;;;;5119728;27;19918;-83
2022/06/10 13:16:58;;;;;;;;;;;22.40;99.90;;;;;;5122307;27;20291;-84
2022/06/10 13:19:27;;;;;;;;;;;22.40;99.90;;;;;;5129060;27;19923;-83
2022/06/10 13:21:53;;;;;;;;;;;22.50;99.90;;;;;;5143708;27;19955;-83
2022/06/10 13:24:20;;;;;;;;;;;22.80;99.90;;;;;;5113896;27;20381;-83
2022/06/10 13:26:46;;;;;;;;;;;22.90;99.90;;;;;;5125206;27;20254;-81
2022/06/10 13:29:16;;;;;;;;;;;23.30;99.90;;;;;;5128718;27;19919;-82
2022/06/10 13:32:00;;;;;;;;;;;23.40;99.90;;;;;;5128945;27;20337;-82
2022/06/10 13:34:25;;;;;;;;;;;23.50;99.90;;;;;;5131304;27;20006;-82
2022/06/10 13:36:56;;;;;;;;;;;23.50;99.90;;;;;;5131021;27;19923;-81
2022/06/10 13:39:27;;;;;;;;;;;23.50;99.90;;;;;;5104284;27;19919;-82
2022/06/10 13:41:53;;;;;;;;;;;23.20;99.90;;;;;;5134020;27;19919;-82
2022/06/10 13:44:27;;;;;;;;;;;23.30;99.90;;;;;;5151793;27;19942;-82
2022/06/10 13:46:53;;;;;;;;;;;23.20;99.90;;;;;;5133152;27;19964;-82
2022/06/10 13:49:42;;;;;;;;;;;23.10;99.90;;;;;;5139615;27;19926;-82
2022/06/10 13:52:41;;;;;;;;;;;23.00;99.90;;;;;;5133214;27;19919;-83
2022/06/10 13:55:35;;;;;;;;;;;22.70;99.90;;;;;;5066926;28;19982;-82
2022/06/10 13:58:18;;;;;;;;;;;22.50;1.00;;;;;;5129954;27;19919;-82
2022/06/10 14:00:50;;;;;;;;;;;21.90;1.00;;;;;;5110736;27;20271;-82
2022/06/10 14:03:28;;;;;;;;;;;21.70;1.00;;;;;;5141360;27;19935;-82
2022/06/10 14:06:02;;;;;;;;;;;21.70;1.00;;;;;;5137973;27;20398;-82
2022/06/10 14:08:29;;;;;;;;;;;21.60;99.90;;;;;;5148599;27;20056;-82
2022/06/10 14:10:55;;;;;;;;;;;21.60;1.00;;;;;;5118029;27;19926;-82
2022/06/10 14:13:25;;;;;;;;;;;21.50;99.90;;;;;;5147575;27;20010;-82
2022/06/10 14:15:51;;;;;;;;;;;21.40;99.90;;;;;;5117171;28;19967;-82
2022/06/10 14:18:19;;;;;;;;;;;21.50;1.00;;;;;;5143077;27;19919;-81
2022/06/10 14:20:45;;;;;;;;;;;21.40;1.00;;;;;;5138690;27;20007;-81
2022/06/10 14:23:29;;;;;;;;;;;21.30;1.00;;;;;;5131534;27;19961;-81